Time;durP1;ratioP1;P1;durP2;ratioP2;P2;SDS_P1;SDS_P2;PMS_P1;PMS_P2;Temp;Humidity;BMP_temperature;BMP_pressure;BME280_temperature;BME280_humidity;BME280_pressure;Samples;Min_cycle;Max_cycle;Signal;HPM_P1;HPM_P2
2023/08/30 00:00:48;;;;;;;6.43;3.93;;;;;;;12.03;100.00;149136.34;5008621;28;20231;-65
2023/08/30 00:03:15;;;;;;;6.00;3.97;;;;;;;12.01;100.00;149130.06;5010924;28;20246;-65
2023/08/30 00:05:41;;;;;;;6.00;3.83;;;;;;;12.04;100.00;149138.81;4998267;28;20230;-65
2023/08/30 00:08:08;;;;;;;4.03;3.63;;;;;;;11.94;100.00;149115.06;5008226;28;20727;-65
2023/08/30 00:10:37;;;;;;;6.03;3.80;;;;;;;11.91;100.00;149107.59;5005919;28;20607;-65
2023/08/30 00:13:04;;;;;;;5.33;3.67;;;;;;;11.89;100.00;149101.38;5008973;28;20243;-65
2023/08/30 00:15:31;;;;;;;4.60;3.80;;;;;;;11.89;100.00;149101.38;5007627;28;20237;-65
2023/08/30 00:17:58;;;;;;;7.10;4.00;;;;;;;11.87;100.00;149097.59;5008168;28;20249;-65
2023/08/30 00:20:25;;;;;;;5.00;3.80;;;;;;;11.89;100.00;149102.59;5018789;28;20230;-64
2023/08/30 00:22:52;;;;;;;6.83;4.03;;;;;;;11.91;100.00;149107.59;5013923;28;20235;-64
2023/08/30 00:25:18;;;;;;;7.43;4.07;;;;;;;11.88;100.00;149098.88;5013009;28;20562;-64
2023/08/30 00:27:46;;;;;;;3.90;3.50;;;;;;;11.87;100.00;149096.38;5012631;28;20323;-64
2023/08/30 00:30:13;;;;;;;5.23;3.60;;;;;;;11.89;100.00;149101.38;5001386;28;20231;-64
2023/08/30 00:32:40;;;;;;;6.43;4.23;;;;;;;11.92;100.00;149110.09;4995222;28;20234;-65
2023/08/30 00:35:08;;;;;;;4.83;3.67;;;;;;;11.96;100.00;149120.06;5004032;28;20222;-64
2023/08/30 00:37:34;;;;;;;4.13;3.37;;;;;;;11.99;100.00;149125.03;5010165;28;20221;-65
2023/08/30 00:40:03;;;;;;;7.17;3.50;;;;;;;11.96;100.00;149120.06;4998172;28;20318;-64
2023/08/30 00:42:29;;;;;;;7.87;3.57;;;;;;;11.96;100.00;149118.81;4992881;28;20386;-64
2023/08/30 00:44:57;;;;;;;7.73;3.67;;;;;;;12.00;100.00;149127.56;4999062;28;20245;-65
2023/08/30 00:47:24;;;;;;;6.87;3.30;;;;;;;12.01;100.00;149130.06;4998993;28;20230;-65
2023/08/30 00:49:50;;;;;;;5.60;3.80;;;;;;;12.04;100.00;149137.56;4993639;28;20304;-65
2023/08/30 00:52:18;;;;;;;4.23;3.60;;;;;;;12.08;100.00;149147.53;4997504;28;20329;-65
2023/08/30 00:54:44;;;;;;;4.97;3.53;;;;;;;12.14;100.00;149161.25;5016327;28;20223;-65
2023/08/30 00:57:11;;;;;;;4.73;3.53;;;;;;;12.14;100.00;149161.25;5015398;28;20231;-65
2023/08/30 00:59:38;;;;;;;7.90;3.40;;;;;;;12.14;100.00;149162.50;5001906;28;20247;-65
2023/08/30 01:02:06;;;;;;;4.00;3.60;;;;;;;12.14;100.00;149162.50;5003783;28;20330;-64
2023/08/30 01:04:34;;;;;;;6.63;3.73;;;;;;;12.17;100.00;149169.97;5011108;28;20281;-65
2023/08/30 01:07:00;;;;;;;4.33;3.63;;;;;;;12.22;100.00;149182.44;5017469;28;20245;-63
2023/08/30 01:09:27;;;;;;;4.33;3.13;;;;;;;12.27;100.00;149192.41;5012675;28;20242;-63
2023/08/30 01:12:01;;;;;;;4.07;3.40;;;;;;;12.32;100.00;149204.88;5004257;28;20570;-63
2023/08/30 01:14:35;;;;;;;6.33;3.37;;;;;;;12.37;100.00;149217.34;5001252;28;20224;-63
2023/08/30 01:17:03;;;;;;;5.73;3.60;;;;;;;12.39;100.00;149222.34;5015940;28;20889;-64
2023/08/30 01:19:42;;;;;;;5.97;3.03;;;;;;;12.40;100.00;149224.84;4993188;28;20238;-63
2023/08/30 01:22:15;;;;;;;4.93;3.37;;;;;;;12.41;100.00;149227.31;4997789;28;20242;-63
2023/08/30 01:24:48;;;;;;;4.10;3.27;;;;;;;12.44;100.00;149234.81;5013058;28;20239;-63
2023/08/30 01:27:18;;;;;;;5.63;3.27;;;;;;;12.45;100.00;149236.03;4999990;28;20225;-63
2023/08/30 01:29:46;;;;;;;4.20;3.20;;;;;;;12.46;100.00;149239.81;4994404;28;20308;-63
2023/08/30 01:32:14;;;;;;;4.27;2.80;;;;;;;12.44;100.00;149234.81;5013620;28;20227;-63
2023/08/30 01:34:43;;;;;;;3.37;3.07;;;;;;;12.43;100.00;149232.31;5009008;28;20217;-63
2023/08/30 01:37:10;;;;;;;3.37;2.83;;;;;;;12.47;100.00;149242.28;4998006;28;20251;-63
2023/08/30 01:39:40;;;;;;;3.70;3.00;;;;;;;12.48;100.00;149243.53;5011860;28;20227;-63
2023/08/30 01:42:09;;;;;;;3.00;2.80;;;;;;;12.48;100.00;149243.53;4997271;28;20282;-64
2023/08/30 01:44:39;;;;;;;5.53;3.07;;;;;;;12.50;100.00;149249.78;4994536;28;20285;-63
2023/08/30 01:47:06;;;;;;;4.87;3.00;;;;;;;12.50;100.00;149249.78;5014045;28;20248;-63
2023/08/30 01:49:37;;;;;;;5.57;2.83;;;;;;;12.54;100.00;149259.75;5013388;28;20241;-63
2023/08/30 01:52:04;;;;;;;3.93;2.93;;;;;;;12.54;100.00;149258.47;5014257;28;20231;-63
2023/08/30 01:54:32;;;;;;;3.40;3.10;;;;;;;12.53;100.00;149256.00;5000337;28;20704;-63
2023/08/30 01:56:59;;;;;;;4.13;3.10;;;;;;;12.55;100.00;149260.97;5004141;28;20231;-63
2023/08/30 01:59:25;;;;;;;3.33;2.97;;;;;;;12.53;100.00;149256.00;5004160;28;20224;-63
2023/08/30 02:01:53;;;;;;;4.53;2.83;;;;;;;12.56;100.00;149263.47;4994483;28;20240;-63
2023/08/30 02:04:21;;;;;;;4.63;3.20;;;;;;;12.53;100.00;149257.25;5014578;28;20238;-63
2023/08/30 02:06:56;;;;;;;5.70;3.57;;;;;;;12.54;100.00;149258.47;5000670;28;20234;-64
2023/08/30 02:09:27;;;;;;;4.07;2.70;;;;;;;12.53;100.00;149256.00;5003897;28;20238;-63
2023/08/30 02:11:56;;;;;;;8.97;3.03;;;;;;;12.54;100.00;149259.75;5012293;28;20242;-63
2023/08/30 02:14:26;;;;;;;3.77;3.13;;;;;;;12.62;100.00;149277.22;5015634;28;20230;-63
2023/08/30 02:16:56;;;;;;;4.80;2.97;;;;;;;12.57;100.00;149265.97;5019887;28;20573;-63
2023/08/30 02:19:24;;;;;;;9.70;3.20;;;;;;;12.64;100.00;149282.22;5024807;28;20230;-64
2023/08/30 02:21:50;;;;;;;5.17;3.10;;;;;;;12.69;100.00;149294.69;5014173;28;21033;-64
2023/08/30 02:24:18;;;;;;;5.60;3.80;;;;;;;12.74;100.00;149307.09;5012257;28;20242;-64
2023/08/30 02:26:45;;;;;;;4.83;3.50;;;;;;;12.76;100.00;149312.09;5013843;28;20228;-64
2023/08/30 02:29:13;;;;;;;3.53;3.17;;;;;;;12.83;100.00;149328.34;5018934;28;20230;-64
2023/08/30 02:31:40;;;;;;;4.73;2.83;;;;;;;12.84;100.00;149332.06;5004868;28;20318;-64
2023/08/30 02:34:08;;;;;;;3.37;2.93;;;;;;;12.85;100.00;149333.31;5000779;28;20234;-64
2023/08/30 02:36:34;;;;;;;3.40;3.07;;;;;;;12.90;100.00;149344.53;5017912;28;20240;-64
2023/08/30 02:39:07;;;;;;;5.17;2.60;;;;;;;12.87;100.00;149338.31;4999975;28;20235;-64
2023/08/30 02:41:34;;;;;;;3.77;2.70;;;;;;;12.82;100.00;149325.84;4999892;28;20234;-64
2023/08/30 02:44:00;;;;;;;5.37;2.80;;;;;;;12.82;100.00;149327.06;5007241;28;20671;-64
2023/08/30 02:46:32;;;;;;;5.80;3.23;;;;;;;12.80;100.00;149322.06;5002899;28;20557;-64
2023/08/30 02:48:59;;;;;;;6.27;3.40;;;;;;;12.76;100.00;149312.09;4998422;28;20258;-64
2023/08/30 02:51:27;;;;;;;3.53;3.00;;;;;;;12.76;100.00;149310.88;4997776;28;20240;-64
2023/08/30 02:53:53;;;;;;;4.17;3.03;;;;;;;12.76;100.00;149312.09;5013116;28;20565;-63
2023/08/30 02:56:20;;;;;;;4.43;2.90;;;;;;;12.75;100.00;149309.59;5005992;28;20269;-64
2023/08/30 02:58:47;;;;;;;4.43;3.07;;;;;;;12.77;100.00;149314.59;4995781;28;20259;-63
2023/08/30 03:01:14;;;;;;;4.20;2.90;;;;;;;12.76;100.00;149310.88;5000011;28;20235;-63
2023/08/30 03:03:40;;;;;;;6.23;3.40;;;;;;;12.79;100.00;149318.34;4997569;28;20216;-63
2023/08/30 03:06:07;;;;;;;3.90;3.00;;;;;;;12.79;100.00;149318.34;4999500;28;20557;-63
2023/08/30 03:08:36;;;;;;;3.17;2.67;;;;;;;12.79;100.00;149318.34;5000551;28;20316;-63
2023/08/30 03:11:10;;;;;;;5.23;3.50;;;;;;;12.78;100.00;149315.84;4998628;28;20280;-64
2023/08/30 03:13:38;;;;;;;4.47;3.10;;;;;;;12.80;100.00;149322.06;4997676;28;20231;-64
2023/08/30 03:16:11;;;;;;;3.83;3.03;;;;;;;12.78;100.00;149315.84;5004066;28;20243;-63
2023/08/30 03:18:38;;;;;;;4.27;2.93;;;;;;;12.76;100.00;149312.09;5004305;28;20227;-63
2023/08/30 03:21:05;;;;;;;4.70;3.20;;;;;;;12.77;100.00;149314.59;5005270;28;20243;-64
2023/08/30 03:23:35;;;;;;;3.60;3.13;;;;;;;12.77;100.00;149313.38;5013011;28;20259;-63
2023/08/30 03:26:08;;;;;;;4.83;3.20;;;;;;;12.76;100.00;149310.88;5020520;28;20626;-63
2023/08/30 03:28:35;;;;;;;3.90;3.20;;;;;;;12.80;100.00;149322.06;5001684;28;20236;-64
2023/08/30 03:31:02;;;;;;;3.90;3.10;;;;;;;12.77;100.00;149314.59;5228608;22;20789;-60
2023/08/30 03:33:29;;;;;;;5.23;3.30;;;;;;;12.75;100.00;149309.59;5000875;28;20224;-59
2023/08/30 03:35:59;;;;;;;4.70;3.23;;;;;;;12.74;100.00;149307.09;4990324;28;20233;-59
2023/08/30 03:38:25;;;;;;;5.93;3.43;;;;;;;12.76;100.00;149312.09;4983727;28;20224;-59
2023/08/30 03:40:55;;;;;;;6.73;3.13;;;;;;;12.77;100.00;149314.59;4994438;28;20602;-59
2023/08/30 03:43:22;;;;;;;5.07;4.13;;;;;;;12.75;100.00;149309.59;4988147;28;20240;-59
2023/08/30 03:45:49;;;;;;;3.60;3.27;;;;;;;12.72;100.00;149302.13;4985443;28;20229;-59
2023/08/30 03:48:16;;;;;;;4.13;3.20;;;;;;;12.72;100.00;149300.88;4983384;28;20220;-59
2023/08/30 03:50:42;;;;;;;3.40;2.90;;;;;;;12.70;100.00;149298.41;4977510;28;20651;-59
2023/08/30 03:53:09;;;;;;;4.47;3.20;;;;;;;12.67;100.00;149290.91;4987528;28;20227;-59
2023/08/30 03:55:35;;;;;;;3.43;3.13;;;;;;;12.67;100.00;149289.69;4978744;28;20244;-59
2023/08/30 03:58:04;;;;;;;3.70;3.40;;;;;;;12.63;100.00;149280.94;5004701;28;20628;-59
2023/08/30 04:00:30;;;;;;;6.33;3.27;;;;;;;12.63;100.00;149280.94;4987229;28;20318;-58
2023/08/30 04:02:57;;;;;;;5.37;3.00;;;;;;;12.66;100.00;149287.19;4988424;28;20291;-60
2023/08/30 04:05:23;;;;;;;5.43;3.47;;;;;;;12.63;100.00;149280.94;4975467;28;20580;-59
2023/08/30 04:07:50;;;;;;;7.40;3.50;;;;;;;12.60;100.00;149273.44;4992555;28;20228;-59
2023/08/30 04:10:17;;;;;;;4.30;3.73;;;;;;;12.58;100.00;149268.47;4976324;28;20244;-59
2023/08/30 04:12:43;;;;;;;7.37;3.77;;;;;;;12.58;100.00;149268.47;5002966;28;20580;-60
2023/08/30 04:15:12;;;;;;;4.97;3.83;;;;;;;12.59;100.00;149269.72;4987401;28;20251;-59
2023/08/30 04:17:40;;;;;;;4.30;3.87;;;;;;;12.57;100.00;149264.75;5002456;28;20231;-59
2023/08/30 04:20:10;;;;;;;6.90;3.60;;;;;;;12.54;100.00;149259.75;5005382;28;20603;-59
2023/08/30 04:22:37;;;;;;;6.73;3.33;;;;;;;12.54;100.00;149259.75;4979449;28;20224;-59
2023/08/30 04:25:05;;;;;;;3.90;3.50;;;;;;;12.54;100.00;149258.47;4986838;28;20260;-60
2023/08/30 04:27:31;;;;;;;5.47;3.70;;;;;;;12.55;100.00;149262.25;4985021;28;20235;-59
2023/08/30 04:29:58;;;;;;;5.73;3.77;;;;;;;12.51;100.00;149251.00;4978462;28;20334;-59
2023/08/30 04:32:26;;;;;;;5.43;3.30;;;;;;;12.52;100.00;149254.75;4977357;28;20224;-59
2023/08/30 04:34:52;;;;;;;4.47;4.03;;;;;;;12.51;100.00;149252.28;4980476;28;20224;-59
2023/08/30 04:37:19;;;;;;;4.03;3.63;;;;;;;12.52;100.00;149253.50;4979135;28;20220;-60
2023/08/30 04:39:48;;;;;;;4.37;3.97;;;;;;;12.48;100.00;149244.78;4973125;28;20228;-59
2023/08/30 04:42:15;;;;;;;4.60;3.60;;;;;;;12.50;100.00;149248.50;4978993;28;20231;-59
2023/08/30 04:44:41;;;;;;;4.70;3.90;;;;;;;12.54;100.00;149258.47;4973537;28;20224;-59
2023/08/30 04:47:08;;;;;;;5.23;3.60;;;;;;;12.58;100.00;149267.25;4996655;28;20698;-59
2023/08/30 04:49:36;;;;;;;5.40;3.40;;;;;;;12.56;100.00;149263.47;4976408;28;20818;-59
2023/08/30 04:52:03;;;;;;;3.97;3.67;;;;;;;12.58;100.00;149268.47;4989514;28;20695;-58
2023/08/30 04:54:30;;;;;;;4.70;3.60;;;;;;;12.60;100.00;149272.22;4986995;28;20224;-59
2023/08/30 04:56:56;;;;;;;6.90;3.77;;;;;;;12.59;100.00;149269.72;4983462;28;20321;-59
2023/08/30 04:59:24;;;;;;;5.70;3.50;;;;;;;12.62;100.00;149278.44;4997367;28;20232;-59
2023/08/30 05:01:51;;;;;;;4.80;3.43;;;;;;;12.69;100.00;149294.69;4984613;28;20236;-59
2023/08/30 05:04:19;;;;;;;7.63;3.90;;;;;;;12.74;100.00;149305.88;4978368;28;20238;-59
2023/08/30 05:06:47;;;;;;;5.37;3.77;;;;;;;12.80;100.00;149320.84;5001951;28;20572;-59
2023/08/30 05:09:15;;;;;;;5.97;3.80;;;;;;;12.85;100.00;149334.53;4976610;28;20231;-59
2023/08/30 05:11:41;;;;;;;5.93;3.90;;;;;;;12.92;100.00;149349.50;4984608;28;20224;-58
2023/08/30 05:14:12;;;;;;;7.27;4.07;;;;;;;12.92;100.00;149349.50;4977557;28;20236;-59
2023/08/30 05:16:39;;;;;;;5.73;3.63;;;;;;;13.02;100.00;149374.47;4975252;28;20336;-59
2023/08/30 05:19:05;;;;;;;3.57;3.27;;;;;;;13.08;100.00;149388.22;5011058;28;20239;-59
2023/08/30 05:21:32;;;;;;;6.23;3.60;;;;;;;13.17;100.00;149410.66;4975706;28;20227;-59
2023/08/30 05:24:00;;;;;;;3.77;3.40;;;;;;;13.25;100.00;149429.38;5001643;28;20294;-59
2023/08/30 05:26:32;;;;;;;5.87;3.90;;;;;;;13.28;100.00;149438.06;5003090;28;20233;-59
2023/08/30 05:28:59;;;;;;;4.80;3.50;;;;;;;13.32;100.00;149446.81;4976787;28;20762;-59
2023/08/30 05:31:26;;;;;;;4.80;3.90;;;;;;;13.29;100.00;149440.56;5002437;28;20317;-59
2023/08/30 05:34:23;;;;;;;7.33;4.23;;;;;;;13.35;100.00;149454.31;4914189;28;20232;-58
2023/08/30 05:37:16;;;;;;;3.60;3.30;;;;;;;13.42;100.00;149471.84;4997631;28;20229;-59
2023/08/30 05:40:17;;;;;;;5.23;3.17;;;;;;;13.48;100.00;149484.31;4986125;28;20236;-59
2023/08/30 05:42:45;;;;;;;3.17;2.97;;;;;;;13.56;100.00;149504.28;4975722;28;20284;-58
2023/08/30 05:45:11;;;;;;;5.97;4.00;;;;;;;13.60;100.00;149514.25;4976835;28;20596;-59
2023/08/30 05:47:38;;;;;;;4.00;3.60;;;;;;;13.70;100.00;149539.22;4996197;28;20323;-58
2023/08/30 05:50:06;;;;;;;6.60;3.97;;;;;;;13.76;100.00;149552.94;4986041;28;20255;-59
2023/08/30 05:52:33;;;;;;;7.57;3.30;;;;;;;13.82;100.00;149567.91;5006450;28;20246;-57
2023/08/30 05:55:00;;;;;;;5.73;3.43;;;;;;;13.90;100.00;149586.59;5007967;28;20224;-59
2023/08/30 05:57:33;;;;;;;4.77;3.83;;;;;;;13.93;100.00;149592.88;4977331;28;20229;-59
2023/08/30 06:00:00;;;;;;;4.90;3.73;;;;;;;14.02;100.00;149616.56;4980825;28;20235;-58
2023/08/30 06:02:26;;;;;;;5.27;3.40;;;;;;;14.09;100.00;149631.53;5005068;28;20235;-59
2023/08/30 06:04:53;;;;;;;3.93;3.53;;;;;;;14.14;100.00;149645.31;5007018;28;20232;-59
2023/08/30 06:07:19;;;;;;;3.47;3.17;;;;;;;14.14;100.00;149645.31;5008100;28;20236;-59
2023/08/30 06:09:46;;;;;;;4.83;3.37;;;;;;;14.16;100.00;149650.28;5003589;28;20360;-59
2023/08/30 06:12:13;;;;;;;4.40;3.20;;;;;;;14.25;100.00;149671.50;5007241;28;20252;-58
2023/08/30 06:14:40;;;;;;;4.87;3.43;;;;;;;14.30;100.00;149682.75;5003997;28;20240;-59
2023/08/30 06:17:07;;;;;;;4.27;3.60;;;;;;;14.36;100.00;149697.69;5007626;28;20220;-59
2023/08/30 06:19:34;;;;;;;7.97;3.80;;;;;;;14.42;100.00;149712.69;5004332;28;20743;-59
2023/08/30 06:22:00;;;;;;;7.47;3.93;;;;;;;14.49;100.00;149728.94;5007383;28;20236;-59
2023/08/30 06:24:27;;;;;;;5.67;3.67;;;;;;;14.61;100.00;149758.91;5003004;28;20271;-59
2023/08/30 06:26:54;;;;;;;4.97;3.80;;;;;;;14.70;100.00;149780.16;5006276;28;20233;-59
2023/08/30 06:29:20;;;;;;;5.30;3.60;;;;;;;14.87;100.00;149821.34;5006889;28;20229;-59
2023/08/30 06:31:48;;;;;;;6.43;3.53;;;;;;;15.01;100.00;149855.09;5004274;28;20252;-59
2023/08/30 06:34:15;;;;;;;7.50;3.70;;;;;;;15.11;100.00;149878.81;5006702;28;20221;-59
2023/08/30 06:36:43;;;;;;;3.53;3.10;;;;;;;15.18;100.00;149895.06;4979544;28;20235;-60
2023/08/30 06:39:09;;;;;;;6.97;3.10;;;;;;;15.32;100.00;149928.78;5001991;28;20252;-59
2023/08/30 06:41:36;;;;;;;3.50;3.20;;;;;;;15.35;100.00;149937.53;5001777;28;20241;-59
2023/08/30 06:44:03;;;;;;;5.60;2.90;;;;;;;15.43;100.00;149954.97;5006006;28;20224;-59
2023/08/30 06:46:32;;;;;;;3.53;2.77;;;;;;;15.40;100.00;149948.75;5003489;28;20229;-59
2023/08/30 06:49:00;;;;;;;20.37;3.53;;;;;;;15.44;100.00;149957.47;5006348;28;20229;-59
2023/08/30 06:51:32;;;;;;;3.03;2.73;;;;;;;15.38;100.00;149943.75;5003368;28;20240;-59
2023/08/30 06:54:00;;;;;;;3.07;2.77;;;;;;;15.30;100.00;149925.03;4977538;28;20230;-60
2023/08/30 06:56:32;;;;;;;4.10;2.93;;;;;;;15.36;100.00;149938.78;5003535;28;20233;-61
2023/08/30 06:58:59;;;;;;;3.33;2.90;;;;;;;15.42;100.00;149953.75;5006691;28;20234;-59
2023/08/30 07:01:51;;;;;;;8.27;3.37;;;;;;;15.45;100.00;149959.97;5003396;28;20251;-60
2023/08/30 07:04:19;;;;;;;5.93;3.20;;;;;;;15.31;99.96;149926.28;5006947;28;20229;-60
2023/08/30 07:06:46;;;;;;;5.40;3.50;;;;;;;15.33;100.00;149931.28;5003499;28;20212;-60
2023/08/30 07:09:12;;;;;;;4.43;2.97;;;;;;;15.37;100.00;149941.28;5006587;28;20485;-59
2023/08/30 07:11:39;;;;;;;11.33;3.10;;;;;;;15.42;100.00;149952.50;5003301;28;20233;-59
2023/08/30 07:14:05;;;;;;;7.07;3.77;;;;;;;15.45;100.00;149961.25;5005912;28;20583;-59
2023/08/30 07:16:32;;;;;;;3.83;3.10;;;;;;;15.38;99.32;149942.50;5001916;28;20221;-59
2023/08/30 07:19:00;;;;;;;3.80;2.80;;;;;;;15.38;97.96;149943.75;5007757;28;20823;-58
2023/08/30 07:21:36;;;;;;;10.63;3.27;;;;;;;15.60;99.33;149996.25;5004401;28;20799;-58
2023/08/30 07:24:03;;;;;;;7.47;3.43;;;;;;;15.76;98.18;150036.22;5007098;28;20636;-58
2023/08/30 07:26:32;;;;;;;9.70;3.40;;;;;;;15.77;97.59;150037.47;5003954;28;20699;-58
2023/08/30 07:28:59;;;;;;;3.47;3.17;;;;;;;15.91;97.49;150071.22;5006597;28;20250;-59
2023/08/30 07:31:25;;;;;;;4.17;3.43;;;;;;;15.94;96.08;150080.00;5003860;28;20808;-58
2023/08/30 07:33:52;;;;;;;3.77;3.10;;;;;;;16.15;94.50;150130.00;5005177;28;20222;-58
2023/08/30 07:36:19;;;;;;;3.87;3.30;;;;;;;16.24;94.89;150151.22;5006539;28;20249;-58
2023/08/30 07:38:47;;;;;;;4.83;2.90;;;;;;;16.33;95.50;150173.72;5004003;28;20222;-58
2023/08/30 07:41:14;;;;;;;5.40;3.60;;;;;;;16.38;92.99;150185.00;5006183;28;20729;-56
2023/08/30 07:43:40;;;;;;;4.60;3.17;;;;;;;16.50;92.66;150213.72;5003343;28;20756;-58
2023/08/30 07:46:07;;;;;;;3.80;3.33;;;;;;;16.56;93.15;150228.72;5004930;28;20242;-59
2023/08/30 07:48:33;;;;;;;8.50;3.87;;;;;;;16.40;94.60;150188.72;5003253;28;20238;-59
2023/08/30 07:51:00;;;;;;;4.73;4.03;;;;;;;16.37;95.06;150182.50;5006152;28;20245;-59
2023/08/30 07:53:27;;;;;;;3.87;3.40;;;;;;;16.55;95.82;150226.22;5002204;28;20877;-59
2023/08/30 07:55:55;;;;;;;4.60;3.10;;;;;;;16.72;92.45;150266.22;5006867;28;20238;-59
2023/08/30 07:58:21;;;;;;;4.53;3.53;;;;;;;16.81;92.11;150289.97;5005889;28;20777;-59
2023/08/30 08:00:51;;;;;;;5.70;3.90;;;;;;;16.76;91.26;150277.47;5001299;28;20230;-59
2023/08/30 08:03:18;;;;;;;6.90;3.57;;;;;;;16.96;89.35;150326.25;5005866;28;20231;-59
2023/08/30 08:05:44;;;;;;;4.57;3.53;;;;;;;16.88;89.37;150306.25;5001933;28;20232;-59
2023/08/30 08:08:11;;;;;;;5.60;3.50;;;;;;;17.10;87.88;150358.78;5005102;28;20223;-59
2023/08/30 08:10:38;;;;;;;4.53;3.60;;;;;;;17.09;87.75;150357.53;5001215;28;20306;-58
2023/08/30 08:13:06;;;;;;;4.37;3.30;;;;;;;17.20;86.93;150382.56;5005690;28;20249;-59
2023/08/30 08:15:33;;;;;;;4.80;3.50;;;;;;;17.21;86.48;150385.06;5000534;28;20220;-59
2023/08/30 08:18:00;;;;;;;5.20;3.63;;;;;;;17.18;87.33;150378.78;5005638;28;20698;-59
2023/08/30 08:20:26;;;;;;;4.40;3.13;;;;;;;17.25;87.27;150396.28;5002672;28;20787;-61
2023/08/30 08:22:53;;;;;;;3.53;3.10;;;;;;;17.48;86.47;150451.34;5003022;28;20302;-58
2023/08/30 08:25:21;;;;;;;3.77;2.90;;;;;;;17.36;86.34;150421.31;5004258;28;20238;-58
2023/08/30 08:27:48;;;;;;;4.70;2.93;;;;;;;17.62;85.55;150483.84;4998830;28;20692;-58
2023/08/30 08:30:16;;;;;;;5.40;4.10;;;;;;;17.52;83.34;150460.06;5004398;28;20574;-58
2023/08/30 08:32:43;;;;;;;10.80;3.13;;;;;;;17.68;84.15;150498.88;4999575;28;20260;-58
2023/08/30 08:35:09;;;;;;;5.03;3.17;;;;;;;17.58;85.68;150473.84;5004805;28;21009;-58
2023/08/30 08:37:36;;;;;;;3.23;2.67;;;;;;;17.87;84.77;150545.13;5001855;28;20226;-58
2023/08/30 08:40:08;;;;;;;3.90;3.00;;;;;;;18.08;83.16;150596.47;4979351;28;20257;-58
2023/08/30 08:42:36;;;;;;;7.37;3.00;;;;;;;18.12;81.11;150605.25;5001607;28;20242;-58
2023/08/30 08:45:04;;;;;;;6.00;3.27;;;;;;;17.90;82.51;150552.66;5004865;28;20674;-58
2023/08/30 08:47:32;;;;;;;3.20;2.70;;;;;;;18.13;80.04;150608.97;5000852;28;20797;-58
2023/08/30 08:49:59;;;;;;;6.20;2.87;;;;;;;18.04;78.88;150586.47;5004393;28;20231;-58
2023/08/30 08:52:26;;;;;;;6.07;2.63;;;;;;;18.20;77.83;150625.28;5004269;28;20240;-58
2023/08/30 08:54:55;;;;;;;4.57;3.17;;;;;;;18.19;78.84;150621.50;5002182;28;20229;-58
2023/08/30 08:57:22;;;;;;;3.70;3.27;;;;;;;18.19;79.01;150622.78;5004321;28;20240;-58
2023/08/30 08:59:50;;;;;;;4.73;3.33;;;;;;;18.14;80.20;150610.25;5000869;28;20231;-58
2023/08/30 09:02:17;;;;;;;4.10;3.40;;;;;;;17.80;81.84;150528.91;5002378;28;20283;-58
2023/08/30 09:04:46;;;;;;;4.40;4.00;;;;;;;17.79;82.52;150526.41;4984412;28;20229;-58
2023/08/30 09:07:12;;;;;;;6.37;4.63;;;;;;;17.70;83.21;150505.09;5003871;28;20224;-58
2023/08/30 09:09:39;;;;;;;4.00;3.60;;;;;;;17.49;82.94;150452.59;5002249;28;20316;-58
2023/08/30 09:12:06;;;;;;;5.33;3.80;;;;;;;17.35;84.00;150418.81;5004889;28;20228;-58
2023/08/30 09:14:32;;;;;;;6.00;3.90;;;;;;;17.40;83.47;150432.59;5001943;28;20228;-58
2023/08/30 09:17:01;;;;;;;5.70;4.50;;;;;;;17.57;83.39;150472.56;5003554;28;20238;-58
2023/08/30 09:19:28;;;;;;;7.07;4.13;;;;;;;17.74;83.41;150512.59;5001506;28;20266;-58
2023/08/30 09:21:57;;;;;;;6.33;3.90;;;;;;;18.31;78.31;150651.53;5003716;28;20698;-57
2023/08/30 09:24:24;;;;;;;3.83;3.53;;;;;;;18.54;78.28;150707.88;5002705;28;20225;-58
2023/08/30 09:26:52;;;;;;;6.30;3.87;;;;;;;18.38;78.13;150669.06;5004644;28;20230;-58
2023/08/30 09:29:20;;;;;;;5.10;3.93;;;;;;;18.41;79.23;150675.34;5007199;28;20239;-58
2023/08/30 09:31:47;;;;;;;5.10;4.30;;;;;;;18.34;80.52;150659.03;5005725;28;20292;-59
2023/08/30 09:34:14;;;;;;;4.20;3.63;;;;;;;19.01;76.79;150820.53;5008545;28;20227;-58
2023/08/30 09:36:41;;;;;;;7.50;4.67;;;;;;;18.63;77.65;150727.84;5006020;28;20222;-58
2023/08/30 09:39:10;;;;;;;5.57;4.17;;;;;;;19.25;73.66;150878.16;5008381;28;20217;-58
2023/08/30 09:41:37;;;;;;;4.70;3.83;;;;;;;19.13;73.87;150849.31;5005444;28;20675;-59
2023/08/30 09:44:08;;;;;;;4.97;4.10;;;;;;;18.67;79.22;150737.88;5008128;28;20249;-58
2023/08/30 09:46:41;;;;;;;4.87;3.80;;;;;;;19.23;76.06;150873.13;5004459;28;20360;-59
2023/08/30 09:49:09;;;;;;;6.37;3.00;;;;;;;19.76;74.20;151003.34;5008336;28;20324;-58
2023/08/30 09:51:38;;;;;;;3.50;3.20;;;;;;;19.85;73.73;151024.66;5004102;28;20595;-59
2023/08/30 09:54:14;;;;;;;3.57;3.27;;;;;;;19.89;73.06;151033.44;5007532;28;20256;-59
2023/08/30 09:56:42;;;;;;;5.13;3.40;;;;;;;20.22;70.92;151113.63;5005249;28;20228;-58
2023/08/30 09:59:11;;;;;;;4.57;3.20;;;;;;;20.48;69.65;151176.28;5008257;28;20239;-59
2023/08/30 10:01:38;;;;;;;5.13;3.10;;;;;;;19.91;70.26;151039.75;5002178;28;20648;-59
2023/08/30 10:04:06;;;;;;;3.50;2.80;;;;;;;19.71;71.54;150989.59;4981582;28;20680;-59
2023/08/30 10:06:34;;;;;;;4.37;3.17;;;;;;;19.45;70.79;150926.97;5005072;28;20220;-59
2023/08/30 10:09:03;;;;;;;4.07;3.13;;;;;;;19.24;69.19;150875.63;5007651;28;20616;-57
2023/08/30 10:11:36;;;;;;;5.57;3.20;;;;;;;19.07;71.07;150835.56;5004013;28;20248;-59
2023/08/30 10:14:04;;;;;;;6.37;3.03;;;;;;;19.06;68.17;150831.84;5006086;28;20252;-58
2023/08/30 10:16:39;;;;;;;6.80;3.03;;;;;;;18.97;72.59;150811.81;5002272;28;20238;-59
2023/08/30 10:19:10;;;;;;;6.63;3.60;;;;;;;19.01;74.89;150820.53;5007091;28;20236;-58
2023/08/30 10:21:37;;;;;;;7.33;3.10;;;;;;;19.09;72.96;150840.59;5004529;28;20224;-59
2023/08/30 10:24:08;;;;;;;5.00;2.70;;;;;;;19.25;71.76;150878.16;5007498;28;20319;-58
2023/08/30 10:26:38;;;;;;;3.57;2.93;;;;;;;19.44;72.92;150925.72;5003299;28;20223;-58
2023/08/30 10:29:07;;;;;;;6.37;2.80;;;;;;;19.41;73.79;150916.94;5007509;28;20239;-57
2023/08/30 10:31:33;;;;;;;3.10;2.70;;;;;;;19.54;69.77;150949.50;5001977;28;20251;-57
2023/08/30 10:34:00;;;;;;;6.83;3.57;;;;;;;19.54;68.99;150948.28;5005445;28;20244;-59
2023/08/30 10:36:32;;;;;;;3.67;2.80;;;;;;;19.15;71.08;150854.34;5003301;28;20229;-58
2023/08/30 10:38:59;;;;;;;3.30;2.90;;;;;;;19.13;70.08;150850.59;5006350;28;20554;-58
2023/08/30 10:41:27;;;;;;;4.00;2.60;;;;;;;19.44;70.86;150924.47;5005518;28;20240;-58
2023/08/30 10:43:56;;;;;;;7.07;3.23;;;;;;;19.18;70.13;150863.13;5004641;28;20224;-58
2023/08/30 10:46:33;;;;;;;3.63;2.67;;;;;;;19.10;70.66;150843.09;5005203;28;20228;-58
2023/08/30 10:49:10;;;;;;;5.23;2.90;;;;;;;19.34;65.77;150900.69;5004555;28;20713;-58
2023/08/30 10:51:38;;;;;;;2.60;2.40;;;;;;;19.22;70.59;150871.88;5004514;28;20317;-58
2023/08/30 10:54:13;;;;;;;4.00;2.83;;;;;;;19.08;69.50;150836.84;5007018;28;20239;-58
2023/08/30 10:56:55;;;;;;;3.47;2.57;;;;;;;19.36;66.89;150904.41;5003956;28;20231;-58
2023/08/30 10:59:24;;;;;;;3.37;2.93;;;;;;;19.29;65.92;150888.16;5006597;28;20232;-58
2023/08/30 11:01:52;;;;;;;2.70;2.50;;;;;;;19.55;67.98;150952.00;5002894;28;20229;-58
2023/08/30 11:04:21;;;;;;;3.07;2.60;;;;;;;19.36;67.59;150905.69;5006735;28;20283;-58
2023/08/30 11:06:49;;;;;;;4.13;2.80;;;;;;;19.59;67.96;150960.81;5004322;28;20235;-58
2023/08/30 11:09:19;;;;;;;2.80;2.47;;;;;;;19.86;68.12;151025.88;5007045;28;20228;-57
2023/08/30 11:11:46;;;;;;;4.13;2.60;;;;;;;19.84;65.53;151022.16;5002886;28;20224;-57
2023/08/30 11:14:13;;;;;;;4.73;2.63;;;;;;;19.73;64.03;150994.59;5006225;28;20325;-58
2023/08/30 11:16:41;;;;;;;3.60;2.43;;;;;;;19.81;63.55;151013.38;5002950;28;20224;-58
2023/08/30 11:19:09;;;;;;;4.30;2.47;;;;;;;19.78;64.29;151007.13;5006703;28;20216;-58
2023/08/30 11:21:37;;;;;;;2.97;2.30;;;;;;;19.77;64.74;151004.63;5002233;28;20632;-58
2023/08/30 11:24:05;;;;;;;3.90;2.33;;;;;;;19.77;63.70;151005.84;5006462;28;20232;-58